Time;durP1;ratioP1;P1;durP2;ratioP2;P2;SDS_P1;SDS_P2;PMS_P1;PMS_P2;Temp;Humidity;BMP_temperature;BMP_pressure;BME280_temperature;BME280_humidity;BME280_pressure;Samples;Min_cycle;Max_cycle;Signal;HPM_P1;HPM_P2
2021/10/17 00:00:00;;;;;;;18.25;4.32;;;16.10;66.80;;;;;;5024347;28;20477;-71
2021/10/17 00:02:27;;;;;;;18.17;5.13;;;16.10;67.00;;;;;;5025951;28;20022;-71
2021/10/17 00:04:53;;;;;;;11.30;4.32;;;16.10;66.80;;;;;;5028164;28;20037;-71
2021/10/17 00:07:20;;;;;;;15.75;4.60;;;16.10;66.10;;;;;;5022678;28;20120;-71
2021/10/17 00:09:46;;;;;;;13.20;2.97;;;16.10;65.50;;;;;;5024181;28;20452;-72
2021/10/17 00:12:13;;;;;;;11.48;3.20;;;16.10;65.00;;;;;;5027465;28;20036;-74
2021/10/17 00:14:40;;;;;;;18.33;4.05;;;16.10;64.60;;;;;;5024518;28;20057;-72
2021/10/17 00:17:07;;;;;;;15.57;3.88;;;16.10;64.40;;;;;;5026119;28;20212;-72
2021/10/17 00:19:34;;;;;;;16.55;3.88;;;16.10;64.50;;;;;;5021105;28;20030;-73
2021/10/17 00:22:01;;;;;;;12.70;3.40;;;16.10;64.30;;;;;;5028183;28;20033;-75
2021/10/17 00:24:28;;;;;;;12.10;4.05;;;16.10;64.50;;;;;;5024297;28;20021;-74
2021/10/17 00:26:54;;;;;;;21.65;7.68;;;16.10;65.10;;;;;;5027453;28;20108;-72
2021/10/17 00:29:21;;;;;;;27.08;7.80;;;16.10;65.50;;;;;;5024853;28;20476;-72
2021/10/17 00:31:47;;;;;;;21.08;7.30;;;16.10;66.10;;;;;;5019874;28;20021;-72
2021/10/17 00:34:15;;;;;;;15.02;4.30;;;16.00;66.10;;;;;;5025459;28;20078;-72
2021/10/17 00:36:41;;;;;;;19.70;4.35;;;16.10;66.60;;;;;;5021017;28;20473;-71
2021/10/17 00:39:08;;;;;;;18.02;4.75;;;16.00;66.80;;;;;;5020364;28;20032;-72
2021/10/17 00:41:34;;;;;;;17.70;4.78;;;16.00;66.80;;;;;;5021810;28;20072;-73
2021/10/17 00:44:02;;;;;;;18.58;6.25;;;16.00;66.60;;;;;;5024412;28;20028;-72
2021/10/17 00:46:29;;;;;;;20.40;7.03;;;16.00;66.30;;;;;;5026331;28;20385;-71
2021/10/17 00:48:55;;;;;;;20.08;6.15;;;16.00;66.40;;;;;;5022965;28;20025;-71
2021/10/17 00:51:22;;;;;;;25.35;11.13;;;16.00;66.80;;;;;;5020845;28;20468;-71
2021/10/17 00:53:48;;;;;;;25.77;11.70;;;16.00;66.30;;;;;;5018813;28;20022;-72
2021/10/17 00:56:15;;;;;;;26.05;10.32;;;16.00;66.90;;;;;;5023066;28;20563;-71
2021/10/17 00:58:42;;;;;;;20.73;6.70;;;16.10;66.70;;;;;;5019229;28;20034;-71
2021/10/17 01:01:09;;;;;;;18.52;5.13;;;16.10;67.10;;;;;;5028690;28;20052;-71
2021/10/17 01:03:35;;;;;;;17.08;3.90;;;16.10;67.80;;;;;;5026251;28;20476;-72
2021/10/17 01:06:04;;;;;;;17.42;5.47;;;16.10;67.90;;;;;;5025247;28;20412;-71
2021/10/17 01:08:30;;;;;;;14.15;3.78;;;16.10;67.30;;;;;;5024355;28;20069;-71
2021/10/17 01:10:58;;;;;;;12.60;3.40;;;16.10;67.40;;;;;;5027012;28;20022;-72
2021/10/17 01:13:25;;;;;;;11.02;2.67;;;16.10;66.80;;;;;;5015014;28;20359;-70
2021/10/17 01:15:53;;;;;;;13.95;2.25;;;16.10;65.60;;;;;;5022944;28;20036;-71
2021/10/17 01:18:21;;;;;;;7.03;2.38;;;16.10;65.10;;;;;;5020985;28;20377;-71
2021/10/17 01:20:49;;;;;;;8.05;2.65;;;16.10;64.80;;;;;;5016294;28;20124;-71
2021/10/17 01:23:17;;;;;;;10.77;1.90;;;16.10;65.00;;;;;;5013218;28;20025;-74
2021/10/17 01:25:44;;;;;;;6.28;2.15;;;16.10;65.20;;;;;;5014001;28;20104;-71
2021/10/17 01:28:12;;;;;;;10.40;3.42;;;16.10;64.90;;;;;;5015219;28;20357;-71
2021/10/17 01:30:40;;;;;;;7.13;2.22;;;16.10;65.10;;;;;;5016729;28;20018;-73
2021/10/17 01:33:07;;;;;;;8.18;2.10;;;16.10;65.20;;;;;;5014022;28;20029;-73
2021/10/17 01:35:34;;;;;;;7.05;2.08;;;16.00;65.60;;;;;;5014226;28;20030;-72
2021/10/17 01:38:00;;;;;;;10.68;2.50;;;16.00;65.80;;;;;;5011560;28;20080;-71
2021/10/17 01:40:27;;;;;;;13.15;3.35;;;16.00;66.00;;;;;;5012814;28;20437;-75
2021/10/17 01:42:54;;;;;;;12.82;3.33;;;16.00;66.20;;;;;;5014289;28;20025;-71
2021/10/17 01:45:20;;;;;;;9.57;2.67;;;16.00;66.70;;;;;;5013068;28;20034;-72
2021/10/17 01:47:48;;;;;;;13.27;3.58;;;16.00;67.20;;;;;;5014061;28;20026;-71
2021/10/17 01:50:16;;;;;;;5.15;2.25;;;15.90;67.30;;;;;;5010915;28;20022;-74
2021/10/17 01:52:42;;;;;;;12.52;2.30;;;15.90;67.50;;;;;;5015229;28;20447;-71
2021/10/17 01:55:09;;;;;;;9.32;2.03;;;15.90;67.50;;;;;;5011159;28;20022;-70
2021/10/17 01:57:39;;;;;;;5.30;1.63;;;15.90;66.50;;;;;;5018332;28;20034;-73
2021/10/17 02:00:07;;;;;;;9.65;2.65;;;15.90;65.70;;;;;;5017306;28;20029;-71
2021/10/17 02:02:34;;;;;;;6.15;2.63;;;15.90;65.90;;;;;;5019666;28;20033;-72
2021/10/17 02:05:00;;;;;;;10.75;3.80;;;15.90;66.40;;;;;;5018313;28;20029;-71
2021/10/17 02:07:27;;;;;;;9.80;4.30;;;15.90;67.10;;;;;;5014373;28;20108;-70
2021/10/17 02:09:53;;;;;;;10.45;4.32;;;15.90;68.00;;;;;;5016905;28;20025;-72
2021/10/17 02:12:26;;;;;;;8.15;3.28;;;15.80;68.70;;;;;;5013947;28;20105;-71
2021/10/17 02:14:54;;;;;;;11.07;5.32;;;15.80;69.10;;;;;;5018824;28;20492;-72
2021/10/17 02:17:20;;;;;;;15.15;5.97;;;15.80;69.50;;;;;;5016539;28;20025;-72
2021/10/17 02:19:47;;;;;;;14.98;6.90;;;15.80;69.50;;;;;;5016939;28;20033;-71
2021/10/17 02:22:13;;;;;;;19.77;5.50;;;15.80;70.00;;;;;;5017627;28;20053;-71
2021/10/17 02:24:40;;;;;;;16.23;5.20;;;15.70;70.30;;;;;;5008974;28;20117;-71
2021/10/17 02:27:06;;;;;;;18.55;4.85;;;15.70;70.60;;;;;;5013699;28;20077;-72
2021/10/17 02:29:34;;;;;;;16.42;7.13;;;15.70;71.10;;;;;;5001209;28;20061;-72
2021/10/17 02:32:00;;;;;;;14.32;5.90;;;15.70;71.50;;;;;;5015759;28;20363;-71
2021/10/17 02:34:27;;;;;;;11.15;5.65;;;15.60;71.50;;;;;;5017289;28;20054;-71
2021/10/17 02:36:54;;;;;;;11.88;4.50;;;15.60;70.90;;;;;;5015353;28;20021;-72
2021/10/17 02:39:24;;;;;;;12.43;5.70;;;15.60;71.00;;;;;;5016788;28;20021;-75
2021/10/17 02:41:50;;;;;;;8.57;4.68;;;15.60;71.30;;;;;;5015796;28;20025;-73
2021/10/17 02:44:17;;;;;;;13.95;4.80;;;15.60;71.20;;;;;;5015090;28;20025;-72
2021/10/17 02:46:44;;;;;;;9.98;4.40;;;15.60;71.30;;;;;;5015880;28;20419;-71
2021/10/17 02:49:10;;;;;;;10.95;3.85;;;15.60;71.40;;;;;;5015589;28;20030;-71
2021/10/17 02:51:37;;;;;;;12.77;4.22;;;15.60;71.30;;;;;;5016496;28;20061;-72
2021/10/17 02:54:03;;;;;;;9.82;4.43;;;15.50;71.50;;;;;;5014500;28;20425;-71
2021/10/17 02:56:30;;;;;;;14.30;5.43;;;15.50;71.40;;;;;;5016042;28;20087;-72
2021/10/17 02:58:57;;;;;;;7.47;4.40;;;15.50;71.60;;;;;;5019075;28;20226;-73
2021/10/17 03:01:24;;;;;;;13.88;4.20;;;15.50;72.50;;;;;;5017670;28;20492;-74
2021/10/17 03:03:50;;;;;;;12.75;3.90;;;15.60;72.00;;;;;;5026230;28;20353;-71
2021/10/17 03:06:17;;;;;;;10.77;5.22;;;15.60;71.80;;;;;;5025188;28;20478;-73
2021/10/17 03:08:43;;;;;;;16.92;10.80;;;15.60;71.60;;;;;;5027898;28;20587;-70
2021/10/17 03:11:10;;;;;;;24.30;8.32;;;15.60;71.40;;;;;;5018745;28;20055;-75
2021/10/17 03:13:37;;;;;;;11.13;4.72;;;15.60;71.40;;;;;;5015159;28;20075;-73
2021/10/17 03:16:03;;;;;;;11.40;4.45;;;15.50;71.30;;;;;;5018420;28;20049;-74
2021/10/17 03:18:33;;;;;;;9.88;2.90;;;15.50;71.60;;;;;;5014810;28;20354;-71
2021/10/17 03:20:59;;;;;;;11.05;4.43;;;15.40;71.90;;;;;;5014073;28;20026;-72
2021/10/17 03:23:26;;;;;;;11.02;2.88;;;15.40;72.30;;;;;;5015541;28;20040;-71
2021/10/17 03:25:55;;;;;;;8.25;2.63;;;15.40;72.60;;;;;;5015519;28;20120;-76
2021/10/17 03:28:22;;;;;;;9.20;2.75;;;15.40;72.50;;;;;;5014411;28;20018;-74
2021/10/17 03:30:50;;;;;;;10.15;3.58;;;15.30;72.60;;;;;;5014567;28;20076;-73
2021/10/17 03:33:17;;;;;;;16.15;3.75;;;15.30;72.80;;;;;;5014163;28;20097;-74
2021/10/17 03:35:44;;;;;;;12.63;3.45;;;15.40;72.80;;;;;;5014308;28;20507;-71
2021/10/17 03:38:11;;;;;;;28.40;3.88;;;15.40;72.90;;;;;;5016619;28;20082;-72
2021/10/17 03:40:37;;;;;;;7.18;2.90;;;15.40;73.30;;;;;;5014782;28;20772;-75
2021/10/17 03:43:04;;;;;;;10.25;2.80;;;15.40;73.10;;;;;;5016052;28;20415;-74
2021/10/17 03:45:30;;;;;;;11.55;3.28;;;15.40;73.10;;;;;;5013779;28;20057;-74
2021/10/17 03:47:58;;;;;;;7.35;3.33;;;15.40;72.90;;;;;;5012678;28;20018;-73
2021/10/17 03:50:25;;;;;;;12.07;3.17;;;15.40;72.80;;;;;;5014773;28;20488;-72
2021/10/17 03:52:51;;;;;;;16.23;10.93;;;15.40;73.30;;;;;;5014884;28;20122;-73
2021/10/17 03:55:17;;;;;;;17.90;6.45;;;15.40;73.90;;;;;;5013749;28;20026;-73
2021/10/17 03:57:44;;;;;;;14.02;4.18;;;15.40;73.80;;;;;;5020164;28;20072;-75
2021/10/17 04:00:11;;;;;;;8.25;2.40;;;15.40;73.30;;;;;;5015802;28;20020;-73
2021/10/17 04:02:38;;;;;;;7.28;2.65;;;15.40;73.70;;;;;;5013869;28;20400;-73
2021/10/17 04:05:05;;;;;;;8.32;2.55;;;15.40;74.50;;;;;;5017462;28;20048;-72
2021/10/17 04:07:31;;;;;;;10.57;2.22;;;15.40;75.20;;;;;;5019702;28;20025;-73
2021/10/17 04:09:58;;;;;;;9.07;2.40;;;15.40;75.60;;;;;;5019601;28;20021;-74
2021/10/17 04:12:24;;;;;;;11.27;2.72;;;15.30;75.80;;;;;;5019147;28;20026;-72
2021/10/17 04:14:51;;;;;;;5.78;2.22;;;15.30;76.10;;;;;;5024119;28;20086;-72
2021/10/17 04:17:17;;;;;;;5.88;2.05;;;15.30;76.40;;;;;;5023663;28;20018;-71
2021/10/17 04:19:44;;;;;;;5.75;2.45;;;15.20;77.30;;;;;;5024540;28;20144;-72
2021/10/17 04:22:10;;;;;;;3.90;1.70;;;15.20;77.00;;;;;;5026670;28;20025;-73
2021/10/17 04:24:37;;;;;;;4.13;2.13;;;15.20;77.30;;;;;;5021924;28;20026;-75
2021/10/17 04:27:07;;;;;;;9.25;1.75;;;15.20;77.70;;;;;;5018639;28;20018;-72
2021/10/17 04:29:35;;;;;;;9.07;3.25;;;15.20;78.00;;;;;;5015738;28;20022;-72
2021/10/17 04:32:03;;;;;;;10.82;3.03;;;15.30;78.40;;;;;;5016462;28;20111;-71
2021/10/17 04:34:30;;;;;;;6.97;2.00;;;15.30;78.70;;;;;;5005087;28;20496;-73
2021/10/17 04:36:57;;;;;;;12.75;6.57;;;15.20;78.80;;;;;;5021715;28;20507;-71
2021/10/17 04:39:24;;;;;;;53.42;36.70;;;15.20;79.30;;;;;;5011271;28;20036;-71
2021/10/17 04:41:51;;;;;;;39.85;27.80;;;15.30;79.60;;;;;;5014582;28;20029;-73
2021/10/17 04:44:18;;;;;;;8.38;4.25;;;15.30;79.60;;;;;;5007392;28;20083;-72
2021/10/17 04:46:45;;;;;;;6.78;2.95;;;15.30;79.70;;;;;;5020743;28;20026;-70
2021/10/17 04:49:11;;;;;;;8.52;2.00;;;15.30;79.30;;;;;;5021920;28;20466;-72
2021/10/17 04:51:38;;;;;;;7.03;2.10;;;15.30;79.10;;;;;;5024690;28;20033;-70
2021/10/17 04:54:04;;;;;;;11.65;2.03;;;15.20;79.30;;;;;;5022400;28;20021;-70
2021/10/17 04:56:31;;;;;;;3.88;2.10;;;15.20;79.30;;;;;;5023087;28;20028;-74
2021/10/17 04:58:58;;;;;;;9.93;1.75;;;15.20;79.50;;;;;;5021457;28;20040;-71
2021/10/17 05:01:27;;;;;;;7.75;1.95;;;15.20;79.40;;;;;;5022215;28;20026;-72
2021/10/17 05:03:54;;;;;;;3.45;1.48;;;15.30;79.30;;;;;;5017576;28;20049;-70
2021/10/17 05:06:20;;;;;;;6.10;2.53;;;15.30;79.20;;;;;;5022140;28;20026;-72
2021/10/17 05:08:47;;;;;;;3.72;1.67;;;15.30;79.40;;;;;;5022444;28;20104;-69
2021/10/17 05:11:13;;;;;;;5.70;1.70;;;15.30;79.40;;;;;;5023663;28;20464;-70
2021/10/17 05:13:40;;;;;;;6.90;1.90;;;15.30;79.20;;;;;;5023136;28;20100;-68
2021/10/17 05:16:06;;;;;;;6.35;1.77;;;15.30;79.40;;;;;;5025366;28;20428;-68
2021/10/17 05:18:33;;;;;;;7.35;2.42;;;15.30;79.90;;;;;;5020526;28;20030;-68
2021/10/17 05:20:59;;;;;;;11.75;3.08;;;15.40;80.10;;;;;;5026123;28;20030;-68
2021/10/17 05:23:25;;;;;;;7.88;2.05;;;15.40;81.40;;;;;;5019818;28;20023;-68
2021/10/17 05:25:52;;;;;;;7.00;2.83;;;15.40;82.10;;;;;;5018433;28;20045;-68
2021/10/17 05:28:18;;;;;;;6.88;1.85;;;15.40;82.50;;;;;;5017091;28;20021;-67
2021/10/17 05:30:45;;;;;;;5.88;1.48;;;15.40;82.80;;;;;;5019512;28;20469;-80
2021/10/17 05:33:12;;;;;;;7.45;2.10;;;15.40;83.10;;;;;;5025743;28;20029;-71
2021/10/17 05:35:41;;;;;;;8.10;1.63;;;15.40;83.50;;;;;;5022764;28;20060;-73
2021/10/17 05:38:13;;;;;;;4.65;1.80;;;15.40;83.70;;;;;;5024612;28;20170;-71
2021/10/17 05:40:43;;;;;;;6.22;1.98;;;15.40;83.90;;;;;;5023620;28;20026;-68
2021/10/17 05:43:10;;;;;;;8.00;2.55;;;15.40;84.20;;;;;;5021231;28;20435;-68
2021/10/17 05:45:39;;;;;;;4.13;1.50;;;15.40;84.40;;;;;;5022375;28;20033;-73
2021/10/17 05:48:42;;;;;;;12.25;5.57;;;15.40;84.60;;;;;;5019152;28;20129;-78
2021/10/17 05:51:09;;;;;;;16.58;10.20;;;15.40;84.90;;;;;;5020325;28;20108;-77
2021/10/17 05:53:35;;;;;;;8.20;2.50;;;15.50;85.20;;;;;;5018141;28;20396;-69
2021/10/17 05:56:09;;;;;;;6.40;3.00;;;15.60;85.50;;;;;;5024065;28;20029;-79
2021/10/17 05:58:36;;;;;;;7.75;2.35;;;15.60;85.80;;;;;;5020848;28;20029;-71
2021/10/17 06:01:06;;;;;;;15.88;4.03;;;15.60;86.10;;;;;;5026344;28;20036;-70
2021/10/17 06:03:32;;;;;;;7.18;2.70;;;15.70;86.30;;;;;;5025318;28;20087;-69
2021/10/17 06:06:02;;;;;;;4.80;2.30;;;15.80;86.60;;;;;;5023925;28;20033;-69
2021/10/17 06:08:34;;;;;;;6.57;1.88;;;15.80;85.90;;;;;;5020479;28;20088;-74
2021/10/17 06:11:01;;;;;;;10.40;2.10;;;15.90;85.70;;;;;;5020944;28;20017;-70
2021/10/17 06:13:27;;;;;;;9.82;2.13;;;15.90;84.90;;;;;;5021869;28;20481;-70
2021/10/17 06:15:57;;;;;;;11.88;2.70;;;15.90;83.30;;;;;;5017621;28;20538;-76
2021/10/17 06:18:28;;;;;;;3.28;1.63;;;15.90;83.10;;;;;;5019854;28;20472;-70
2021/10/17 06:20:57;;;;;;;7.03;1.83;;;15.90;83.20;;;;;;5020686;28;20022;-71
2021/10/17 06:23:24;;;;;;;7.90;2.92;;;15.90;83.20;;;;;;5020638;28;20547;-70
2021/10/17 06:25:51;;;;;;;5.60;1.55;;;16.00;83.50;;;;;;5021167;28;20072;-71
2021/10/17 06:28:17;;;;;;;6.85;2.38;;;16.00;83.90;;;;;;5021931;28;20072;-70
2021/10/17 06:30:55;;;;;;;4.38;1.67;;;16.00;83.60;;;;;;5019587;28;20032;-71
2021/10/17 06:33:21;;;;;;;7.22;1.90;;;16.00;82.70;;;;;;5019616;28;20037;-70
2021/10/17 06:35:48;;;;;;;7.15;2.10;;;16.00;82.00;;;;;;5022661;28;20463;-70
2021/10/17 06:38:14;;;;;;;3.05;1.42;;;16.00;82.20;;;;;;5020164;28;20100;-68
2021/10/17 06:41:20;;;;;;;6.30;2.55;;;16.10;82.70;;;;;;5022359;28;20030;-68
2021/10/17 06:43:47;;;;;;;10.70;2.47;;;16.10;83.00;;;;;;5017537;28;20029;-68
2021/10/17 06:46:13;;;;;;;3.88;1.30;;;16.10;83.40;;;;;;5020978;28;20159;-70
2021/10/17 06:48:40;;;;;;;10.48;1.65;;;16.10;84.60;;;;;;5009602;28;20025;-69
2021/10/17 06:51:06;;;;;;;10.50;2.55;;;16.10;84.40;;;;;;5016976;28;20030;-74
2021/10/17 06:53:33;;;;;;;8.75;2.55;;;16.10;84.70;;;;;;5019791;28;20021;-75
2021/10/17 06:55:59;;;;;;;6.47;1.77;;;16.10;84.80;;;;;;5008655;28;20117;-69
2021/10/17 06:58:26;;;;;;;115.22;79.10;;;16.10;84.50;;;;;;5023381;28;20032;-68
2021/10/17 07:00:52;;;;;;;26.80;13.82;;;16.10;84.60;;;;;;5029258;28;20010;-69
2021/10/17 07:03:20;;;;;;;8.35;3.03;;;16.00;84.60;;;;;;5028960;28;20025;-72
2021/10/17 07:05:46;;;;;;;5.43;1.92;;;16.00;84.60;;;;;;5024319;28;20037;-69
2021/10/17 07:08:12;;;;;;;4.80;1.83;;;16.10;85.30;;;;;;5025509;28;20021;-69
2021/10/17 07:10:39;;;;;;;4.22;2.35;;;16.10;85.60;;;;;;5028832;28;20021;-70
2021/10/17 07:13:05;;;;;;;7.88;2.35;;;16.10;86.10;;;;;;5018939;28;20025;-66
2021/10/17 07:15:32;;;;;;;8.13;2.20;;;16.20;86.10;;;;;;5016096;28;20492;-69
2021/10/17 07:17:59;;;;;;;3.92;2.40;;;16.20;85.70;;;;;;5024866;28;20385;-70
2021/10/17 07:20:25;;;;;;;8.60;3.30;;;16.20;85.90;;;;;;5019211;28;20429;-75
2021/10/17 07:22:52;;;;;;;14.63;9.75;;;16.30;85.60;;;;;;5018738;28;20100;-73
2021/10/17 07:25:18;;;;;;;9.93;3.83;;;16.40;85.70;;;;;;5017082;28;20084;-70
2021/10/17 07:27:45;;;;;;;8.52;2.50;;;16.40;85.80;;;;;;5022499;28;20021;-70
2021/10/17 07:30:11;;;;;;;6.20;2.10;;;16.60;85.70;;;;;;5023167;28;20092;-70
2021/10/17 07:32:38;;;;;;;12.30;3.55;;;16.60;85.10;;;;;;5023758;28;20092;-74
2021/10/17 07:35:05;;;;;;;3.90;1.90;;;16.70;84.60;;;;;;5025288;28;20029;-70
2021/10/17 07:37:31;;;;;;;5.78;1.83;;;16.80;83.90;;;;;;5021195;28;20105;-70
2021/10/17 07:39:58;;;;;;;6.03;2.00;;;16.80;83.00;;;;;;5028542;28;20014;-76
2021/10/17 07:42:24;;;;;;;8.45;2.25;;;16.80;82.50;;;;;;5021456;28;20037;-70
2021/10/17 07:44:50;;;;;;;4.18;1.63;;;16.90;81.40;;;;;;5017028;28;20025;-70
2021/10/17 07:47:17;;;;;;;4.25;2.10;;;16.90;80.80;;;;;;5016805;28;20033;-71
2021/10/17 07:49:43;;;;;;;13.50;4.38;;;16.90;80.80;;;;;;5021836;28;20049;-70
2021/10/17 07:52:10;;;;;;;4.93;1.92;;;16.90;80.20;;;;;;5028479;28;20026;-75
2021/10/17 07:54:37;;;;;;;4.80;1.20;;;16.90;80.00;;;;;;5025220;28;20097;-74
2021/10/17 07:57:06;;;;;;;6.10;1.55;;;16.90;79.30;;;;;;5019587;28;20033;-71
2021/10/17 07:59:33;;;;;;;6.60;1.83;;;16.90;78.30;;;;;;5023665;28;20026;-75
2021/10/17 08:02:00;;;;;;;5.22;1.67;;;16.90;77.80;;;;;;5026431;28;20810;-71
2021/10/17 08:04:27;;;;;;;6.75;2.08;;;17.00;76.50;;;;;;5022541;28;20100;-75
2021/10/17 08:06:53;;;;;;;7.47;1.63;;;17.10;76.30;;;;;;5026099;28;20045;-73
2021/10/17 08:09:20;;;;;;;11.35;2.83;;;17.20;76.40;;;;;;5023723;28;20093;-73
2021/10/17 08:11:47;;;;;;;6.35;2.00;;;17.30;76.00;;;;;;5027686;28;20033;-71
2021/10/17 08:14:14;;;;;;;4.22;1.70;;;17.30;76.10;;;;;;5022011;28;20108;-72
2021/10/17 08:16:40;;;;;;;7.97;1.73;;;17.40;76.80;;;;;;5025782;28;20029;-71
2021/10/17 08:19:07;;;;;;;7.20;1.67;;;17.50;75.40;;;;;;5021038;28;20612;-74
2021/10/17 08:21:33;;;;;;;4.40;1.33;;;17.60;73.60;;;;;;5025806;28;20033;-75
2021/10/17 08:23:59;;;;;;;9.75;2.10;;;17.60;72.50;;;;;;5020257;28;20053;-72
2021/10/17 08:26:26;;;;;;;7.03;2.20;;;17.60;73.00;;;;;;5024750;28;20025;-73
2021/10/17 08:28:53;;;;;;;10.82;3.28;;;17.70;73.50;;;;;;5027882;28;20037;-73
2021/10/17 08:31:19;;;;;;;5.80;2.13;;;17.70;73.50;;;;;;5022459;28;20022;-70
2021/10/17 08:34:25;;;;;;;7.72;1.65;;;17.80;73.70;;;;;;5027882;28;20046;-71
2021/10/17 08:37:32;;;;;;;9.55;1.48;;;17.80;73.60;;;;;;5020372;28;20025;-72
2021/10/17 08:40:39;;;;;;;6.82;1.83;;;17.90;74.50;;;;;;5024777;28;20026;-73
2021/10/17 08:43:45;;;;;;;5.18;1.73;;;17.90;73.00;;;;;;5015794;28;20014;-76
2021/10/17 08:46:54;;;;;;;5.20;1.75;;;17.90;71.50;;;;;;5013829;28;20527;-74
2021/10/17 08:50:00;;;;;;;5.82;1.40;;;18.00;71.90;;;;;;5012350;28;20025;-72
2021/10/17 08:52:27;;;;;;;2.22;1.38;;;17.90;71.10;;;;;;5020200;28;20481;-72
2021/10/17 08:54:53;;;;;;;6.60;1.70;;;17.80;70.20;;;;;;5024378;28;20033;-72
2021/10/17 08:57:20;;;;;;;5.22;1.83;;;17.70;71.10;;;;;;5024544;28;20010;-79
2021/10/17 08:59:51;;;;;;;9.27;2.25;;;17.60;72.60;;;;;;5008366;28;20416;-72
2021/10/17 09:02:22;;;;;;;13.43;3.17;;;17.60;72.80;;;;;;5025939;28;20030;-77
2021/10/17 09:04:59;;;;;;;11.32;3.10;;;17.50;73.20;;;;;;5024419;28;20018;-83
2021/10/17 09:07:26;;;;;;;7.75;2.67;;;17.50;73.40;;;;;;5020997;28;20026;-71
2021/10/17 09:10:11;;;;;;;5.55;1.73;;;17.50;73.10;;;;;;5021416;28;20029;-81
2021/10/17 09:12:39;;;;;;;7.57;1.77;;;17.50;72.90;;;;;;5020857;28;20028;-70
2021/10/17 09:15:30;;;;;;;6.07;1.92;;;17.50;73.40;;;;;;5015127;28;20026;-78
2021/10/17 09:18:14;;;;;;;5.70;1.58;;;17.40;73.00;;;;;;5020475;28;20029;-84
2021/10/17 09:20:47;;;;;;;10.57;2.13;;;17.40;73.80;;;;;;5022029;28;20511;-72
2021/10/17 09:23:22;;;;;;;8.40;1.67;;;17.40;73.40;;;;;;5018051;28;20172;-82
2021/10/17 09:25:53;;;;;;;6.38;1.70;;;17.50;73.90;;;;;;5021785;28;20029;-75
2021/10/17 09:28:26;;;;;;;7.70;1.88;;;17.60;74.30;;;;;;5018254;28;20033;-75
2021/10/17 09:31:07;;;;;;;6.65;2.45;;;17.70;74.20;;;;;;5022322;28;20501;-76
2021/10/17 09:33:49;;;;;;;4.53;2.05;;;17.80;73.60;;;;;;5020727;28;20050;-76
2021/10/17 09:36:33;;;;;;;4.95;1.73;;;18.00;73.40;;;;;;5016973;28;20022;-78
2021/10/17 09:41:41;;;;;;;6.85;1.23;;;18.10;71.50;;;;;;5012597;28;20026;-79
2021/10/17 09:44:08;;;;;;;15.18;5.85;;;18.20;70.30;;;;;;4999923;28;20029;-80
2021/10/17 09:46:35;;;;;;;6.75;4.05;;;18.20;75.50;;;;;;5016198;28;20049;-79
2021/10/17 09:49:16;;;;;;;7.38;2.70;;;18.20;77.10;;;;;;5019581;28;20029;-79
2021/10/17 09:51:43;;;;;;;6.53;2.45;;;18.20;77.40;;;;;;5007745;28;20025;-85
2021/10/17 09:54:10;;;;;;;10.13;1.95;;;18.10;76.90;;;;;;5023666;28;20675;-77
2021/10/17 09:56:39;;;;;;;3.25;1.30;;;18.10;76.70;;;;;;5022826;28;20018;-79
2021/10/17 09:59:08;;;;;;;6.22;1.70;;;17.90;76.10;;;;;;5021405;28;20021;-73
2021/10/17 10:01:36;;;;;;;3.53;1.50;;;17.90;75.60;;;;;;5022649;28;20013;-73
2021/10/17 10:04:06;;;;;;;3.72;1.33;;;17.80;75.80;;;;;;5018761;28;20032;-74
2021/10/17 10:06:33;;;;;;;5.45;3.33;;;17.80;76.90;;;;;;5020074;28;20034;-75
2021/10/17 10:09:08;;;;;;;5.45;1.58;;;17.80;77.60;;;;;;5025300;28;20598;-76
2021/10/17 10:11:36;;;;;;;4.07;0.90;;;17.70;77.10;;;;;;5030858;28;20116;-78
2021/10/17 10:14:14;;;;;;;71.60;49.90;;;17.70;74.70;;;;;;5024894;28;20034;-76
2021/10/17 10:16:41;;;;;;;9.90;6.85;;;17.70;74.50;;;;;;5005663;28;20033;-79
2021/10/17 10:19:12;;;;;;;3.72;2.60;;;17.70;74.30;;;;;;5024981;28;20045;-76
2021/10/17 10:21:39;;;;;;;5.75;2.42;;;17.80;74.00;;;;;;5029904;28;20071;-79
2021/10/17 10:24:09;;;;;;;5.63;3.38;;;17.90;74.30;;;;;;5027616;28;20487;-81
2021/10/17 10:26:37;;;;;;;3.20;2.28;;;18.10;74.60;;;;;;5025609;28;20508;-75
2021/10/17 10:29:04;;;;;;;6.20;2.40;;;18.20;74.00;;;;;;5024593;28;20092;-72
2021/10/17 10:31:50;;;;;;;5.07;1.80;;;18.30;73.40;;;;;;5025312;28;20021;-76
2021/10/17 10:34:23;;;;;;;6.53;1.45;;;18.30;72.50;;;;;;5022134;28;20057;-85
2021/10/17 10:36:52;;;;;;;3.17;1.10;;;18.30;70.40;;;;;;5021165;28;20030;-76
2021/10/17 10:39:21;;;;;;;5.90;1.38;;;18.30;69.70;;;;;;5018802;28;20037;-75
2021/10/17 10:41:56;;;;;;;3.70;1.27;;;18.30;69.80;;;;;;5019223;28;20025;-76
2021/10/17 10:44:40;;;;;;;5.43;1.35;;;18.40;71.40;;;;;;5018536;28;20373;-76
2021/10/17 10:47:25;;;;;;;6.95;2.33;;;18.50;72.20;;;;;;5017923;28;20034;-77
2021/10/17 10:49:56;;;;;;;3.80;1.20;;;18.50;69.40;;;;;;5018002;28;20049;-75
2021/10/17 10:52:28;;;;;;;4.78;1.30;;;18.40;69.00;;;;;;5016472;28;20026;-76
2021/10/17 10:55:00;;;;;;;3.78;1.60;;;18.40;67.90;;;;;;5028213;28;20029;-76
2021/10/17 10:57:31;;;;;;;1.95;1.00;;;18.40;68.50;;;;;;5013324;28;20018;-78
2021/10/17 11:00:02;;;;;;;5.07;1.98;;;18.30;70.00;;;;;;5026532;28;20018;-76
2021/10/17 11:02:29;;;;;;;6.13;1.60;;;18.30;70.50;;;;;;5029332;28;20124;-76
2021/10/17 11:05:00;;;;;;;4.95;1.45;;;18.30;71.20;;;;;;5025898;28;20037;-77
2021/10/17 11:07:40;;;;;;;7.30;1.85;;;18.20;72.80;;;;;;5010450;28;20033;-76
2021/10/17 11:10:22;;;;;;;8.35;1.15;;;18.00;73.10;;;;;;5019977;28;20033;-74
2021/10/17 11:13:01;;;;;;;4.70;2.63;;;17.90;75.50;;;;;;5021615;28;20470;-74
2021/10/17 11:15:33;;;;;;;5.78;2.60;;;17.80;77.10;;;;;;5004176;28;20041;-74
2021/10/17 11:18:11;;;;;;;6.68;2.38;;;17.70;77.30;;;;;;5016911;28;20052;-75
2021/10/17 11:20:43;;;;;;;10.57;3.47;;;17.60;80.60;;;;;;5022559;28;20025;-80
2021/10/17 11:23:24;;;;;;;5.95;2.60;;;17.50;81.10;;;;;;5029631;28;20032;-72
2021/10/17 11:25:56;;;;;;;9.55;2.30;;;17.50;83.20;;;;;;5028948;28;20037;-74
2021/10/17 11:28:25;;;;;;;5.63;2.00;;;17.50;83.30;;;;;;5022927;28;20022;-75
2021/10/17 11:31:09;;;;;;;7.57;2.78;;;17.60;83.20;;;;;;5024692;28;20034;-74
2021/10/17 11:33:37;;;;;;;7.57;1.92;;;17.60;83.20;;;;;;5018256;28;20111;-74
2021/10/17 11:36:08;;;;;;;16.67;2.53;;;17.60;82.80;;;;;;5020538;28;20022;-72
2021/10/17 11:38:39;;;;;;;6.70;2.03;;;17.70;82.20;;;;;;5023223;28;20099;-75
2021/10/17 11:41:15;;;;;;;7.03;2.00;;;17.70;82.40;;;;;;5023740;28;20048;-73
2021/10/17 11:43:48;;;;;;;6.80;1.83;;;17.70;81.60;;;;;;5024879;28;20101;-72
2021/10/17 11:46:21;;;;;;;8.80;1.73;;;17.80;80.90;;;;;;5018403;28;20025;-71
2021/10/17 11:48:58;;;;;;;6.63;2.42;;;17.80;79.10;;;;;;5016676;28;21022;-72
2021/10/17 11:51:25;;;;;;;6.95;1.88;;;17.80;77.50;;;;;;5019933;28;20104;-71
2021/10/17 11:53:59;;;;;;;7.85;2.33;;;17.80;77.80;;;;;;5027281;28;20017;-72
2021/10/17 11:56:27;;;;;;;7.43;3.97;;;17.90;79.00;;;;;;5027849;28;20053;-72
2021/10/17 11:58:53;;;;;;;7.53;3.53;;;17.90;78.50;;;;;;5027460;28;20073;-79
2021/10/17 12:01:20;;;;;;;4.22;2.22;;;17.90;78.30;;;;;;5019853;28;20498;-73
2021/10/17 12:04:02;;;;;;;3.90;2.75;;;17.90;78.40;;;;;;5023156;28;20022;-74
2021/10/17 12:06:28;;;;;;;4.53;1.80;;;17.90;78.30;;;;;;5021235;28;20112;-72
2021/10/17 12:08:57;;;;;;;4.68;1.45;;;18.00;78.00;;;;;;5024728;28;20026;-74
2021/10/17 12:11:24;;;;;;;3.53;1.77;;;18.00;78.30;;;;;;5025780;28;20021;-73
2021/10/17 12:13:53;;;;;;;5.78;2.00;;;18.10;78.00;;;;;;5023094;28;20079;-73
2021/10/17 12:16:22;;;;;;;4.88;1.40;;;18.20;77.50;;;;;;5027087;28;20374;-72
2021/10/17 12:19:03;;;;;;;4.63;1.70;;;18.30;77.20;;;;;;5028025;28;20034;-72
2021/10/17 12:21:40;;;;;;;8.20;1.90;;;18.30;77.40;;;;;;5027227;28;20010;-71
2021/10/17 12:24:09;;;;;;;4.22;1.60;;;18.20;77.90;;;;;;5023835;28;20083;-71
2021/10/17 12:26:36;;;;;;;4.53;1.85;;;18.20;78.50;;;;;;5025634;28;20056;-71
2021/10/17 12:29:14;;;;;;;5.85;1.35;;;18.10;79.10;;;;;;5024164;28;20059;-72
2021/10/17 12:31:43;;;;;;;15.82;8.98;;;18.10;79.40;;;;;;5026858;28;20076;-73
2021/10/17 12:34:11;;;;;;;12.23;4.45;;;18.10;79.70;;;;;;5026691;28;20049;-72
2021/10/17 12:36:40;;;;;;;5.30;1.92;;;18.00;79.50;;;;;;5022437;28;20539;-71
2021/10/17 12:39:11;;;;;;;5.05;2.45;;;18.00;78.20;;;;;;5021432;28;20101;-73
2021/10/17 12:41:39;;;;;;;4.88;1.88;;;18.00;77.80;;;;;;5026808;28;20022;-77
2021/10/17 12:44:12;;;;;;;5.28;1.88;;;17.90;77.40;;;;;;5024882;28;20362;-72
2021/10/17 12:46:39;;;;;;;7.22;1.70;;;17.90;76.40;;;;;;5025426;28;20037;-72
2021/10/17 12:49:18;;;;;;;3.65;1.20;;;17.80;76.70;;;;;;5029255;28;20492;-72
2021/10/17 12:51:50;;;;;;;4.05;1.40;;;17.80;77.10;;;;;;5027238;28;20025;-79
2021/10/17 12:54:25;;;;;;;4.82;1.20;;;17.70;76.60;;;;;;5028629;28;20033;-73
2021/10/17 12:56:51;;;;;;;3.30;1.52;;;17.70;76.30;;;;;;5019273;28;20383;-76